sensor_id;sensor_type;location;lat;lon;timestamp;pressure;altitude;pressure_sealevel;temperature;humidity
52032;BME280;38044;45.148;39.604;2023-12-22T00:00:05;99795.75;;;11.52;65.12
52032;BME280;38044;45.148;39.604;2023-12-22T00:02:30;99805.59;;;11.57;64.73
52032;BME280;38044;45.148;39.604;2023-12-22T00:04:56;99815.09;;;11.63;65.22
52032;BME280;38044;45.148;39.604;2023-12-22T00:07:22;99820.31;;;11.59;65.07
52032;BME280;38044;45.148;39.604;2023-12-22T00:09:48;99820.63;;;11.58;64.82
52032;BME280;38044;45.148;39.604;2023-12-22T00:12:14;99833.78;;;11.68;64.86
52032;BME280;38044;45.148;39.604;2023-12-22T00:14:40;99830.75;;;11.61;64.69
52032;BME280;38044;45.148;39.604;2023-12-22T00:17:06;99843.91;;;11.71;65.01
52032;BME280;38044;45.148;39.604;2023-12-22T00:19:32;99834.22;;;11.70;64.81
52032;BME280;38044;45.148;39.604;2023-12-22T00:21:58;99809.69;;;11.63;64.68
52032;BME280;38044;45.148;39.604;2023-12-22T00:24:24;99826.16;;;11.70;64.82
52032;BME280;38044;45.148;39.604;2023-12-22T00:26:50;99811.91;;;11.61;65.27
52032;BME280;38044;45.148;39.604;2023-12-22T00:29:16;99825.38;;;11.61;65.01
52032;BME280;38044;45.148;39.604;2023-12-22T00:31:41;99827.75;;;11.62;65.37
52032;BME280;38044;45.148;39.604;2023-12-22T00:34:07;99816.97;;;11.54;65.40
52032;BME280;38044;45.148;39.604;2023-12-22T00:36:33;99823.00;;;11.59;65.37
52032;BME280;38044;45.148;39.604;2023-12-22T00:38:59;99827.44;;;11.64;65.39
52032;BME280;38044;45.148;39.604;2023-12-22T00:41:24;99830.59;;;11.66;65.06
52032;BME280;38044;45.148;39.604;2023-12-22T00:43:50;99815.09;;;11.63;65.08
52032;BME280;38044;45.148;39.604;2023-12-22T00:46:16;99826.78;;;11.67;65.07
52032;BME280;38044;45.148;39.604;2023-12-22T00:48:42;99818.41;;;11.68;65.30
52032;BME280;38044;45.148;39.604;2023-12-22T00:51:08;99801.78;;;11.58;65.00
52032;BME280;38044;45.148;39.604;2023-12-22T00:53:34;99814.94;;;11.68;64.78
52032;BME280;38044;45.148;39.604;2023-12-22T00:56:00;99818.56;;;11.72;64.77
52032;BME280;38044;45.148;39.604;2023-12-22T00:58:31;99813.34;;;11.67;65.12
52032;BME280;38044;45.148;39.604;2023-12-22T01:00:57;99807.63;;;11.68;65.05
52032;BME280;38044;45.148;39.604;2023-12-22T01:03:23;99807.31;;;11.70;65.14
52032;BME280;38044;45.148;39.604;2023-12-22T01:05:49;99805.25;;;11.67;65.23
52032;BME280;38044;45.148;39.604;2023-12-22T01:08:15;99795.91;;;11.73;65.08
52032;BME280;38044;45.148;39.604;2023-12-22T01:10:41;99793.84;;;11.70;65.26
52032;BME280;38044;45.148;39.604;2023-12-22T01:13:07;99794.47;;;11.67;65.33
52032;BME280;38044;45.148;39.604;2023-12-22T01:15:32;99783.25;;;11.56;65.69
52032;BME280;38044;45.148;39.604;2023-12-22T01:17:58;99807.00;;;11.63;66.12
52032;BME280;38044;45.148;39.604;2023-12-22T01:20:24;99796.09;;;11.59;66.09
52032;BME280;38044;45.148;39.604;2023-12-22T01:22:50;99794.03;;;11.56;66.13
52032;BME280;38044;45.148;39.604;2023-12-22T01:25:17;99778.66;;;11.48;66.38
52032;BME280;38044;45.148;39.604;2023-12-22T01:27:42;99776.59;;;11.45;66.55
52032;BME280;38044;45.148;39.604;2023-12-22T01:30:08;99776.75;;;11.40;67.00
52032;BME280;38044;45.148;39.604;2023-12-22T01:32:34;99784.97;;;11.43;67.00
52032;BME280;38044;45.148;39.604;2023-12-22T01:35:02;99760.09;;;11.29;67.35
52032;BME280;38044;45.148;39.604;2023-12-22T01:37:35;99769.75;;;11.30;68.16
52032;BME280;38044;45.148;39.604;2023-12-22T01:40:02;99778.44;;;11.27;68.23
52032;BME280;38044;45.148;39.604;2023-12-22T01:42:28;99774.66;;;11.19;68.57
52032;BME280;38044;45.148;39.604;2023-12-22T01:44:54;99777.97;;;11.16;68.64
52032;BME280;38044;45.148;39.604;2023-12-22T01:47:20;99761.19;;;11.11;68.53
52032;BME280;38044;45.148;39.604;2023-12-22T01:49:47;99761.00;;;11.07;69.10
52032;BME280;38044;45.148;39.604;2023-12-22T01:52:13;99748.78;;;10.92;69.35
52032;BME280;38044;45.148;39.604;2023-12-22T01:54:40;99764.16;;;11.00;69.80
52032;BME280;38044;45.148;39.604;2023-12-22T01:57:06;99760.97;;;10.90;70.64
52032;BME280;38044;45.148;39.604;2023-12-22T01:59:33;99743.38;;;10.75;71.64
52032;BME280;38044;45.148;39.604;2023-12-22T02:02:03;99742.41;;;10.71;72.04
52032;BME280;38044;45.148;39.604;2023-12-22T02:04:30;99752.94;;;10.58;73.23
52032;BME280;38044;45.148;39.604;2023-12-22T02:07:01;99754.53;;;10.51;74.43
52032;BME280;38044;45.148;39.604;2023-12-22T02:09:27;99756.63;;;10.31;75.41
52032;BME280;38044;45.148;39.604;2023-12-22T02:11:53;99756.06;;;10.21;76.41
52032;BME280;38044;45.148;39.604;2023-12-22T02:14:19;99750.97;;;10.10;77.56
52032;BME280;38044;45.148;39.604;2023-12-22T02:17:10;99748.13;;;10.15;77.92
52032;BME280;38044;45.148;39.604;2023-12-22T02:19:45;99741.09;;;9.97;78.24
52032;BME280;38044;45.148;39.604;2023-12-22T02:22:12;99749.63;;;9.99;78.36
52032;BME280;38044;45.148;39.604;2023-12-22T02:24:39;99743.88;;;9.92;78.91
52032;BME280;38044;45.148;39.604;2023-12-22T02:27:15;99757.06;;;10.02;78.90
52032;BME280;38044;45.148;39.604;2023-12-22T02:29:57;99752.00;;;10.01;79.45
52032;BME280;38044;45.148;39.604;2023-12-22T02:32:34;99770.50;;;10.02;79.93
52032;BME280;38044;45.148;39.604;2023-12-22T02:35:03;99749.69;;;9.85;80.40
52032;BME280;38044;45.148;39.604;2023-12-22T02:37:31;99749.53;;;9.82;80.76
52032;BME280;38044;45.148;39.604;2023-12-22T02:39:58;99740.84;;;9.85;80.75
52032;BME280;38044;45.148;39.604;2023-12-22T02:42:25;99756.53;;;9.91;81.18
52032;BME280;38044;45.148;39.604;2023-12-22T02:44:57;99756.63;;;9.86;81.78
52032;BME280;38044;45.148;39.604;2023-12-22T02:47:23;99752.88;;;9.87;81.24
52032;BME280;38044;45.148;39.604;2023-12-22T02:49:49;99750.81;;;9.84;81.37
52032;BME280;38044;45.148;39.604;2023-12-22T02:52:15;99745.72;;;9.83;82.08
52032;BME280;38044;45.148;39.604;2023-12-22T02:54:41;99730.97;;;9.72;82.81
52032;BME280;38044;45.148;39.604;2023-12-22T02:57:09;99749.53;;;9.82;84.53
52032;BME280;38044;45.148;39.604;2023-12-22T02:59:37;99741.69;;;9.72;85.28
52032;BME280;38044;45.148;39.604;2023-12-22T03:02:03;99747.78;;;9.63;86.17
52032;BME280;38044;45.148;39.604;2023-12-22T03:04:28;99728.38;;;9.44;86.83
52032;BME280;38044;45.148;39.604;2023-12-22T03:06:54;99741.00;;;9.43;87.87
52032;BME280;38044;45.148;39.604;2023-12-22T03:09:20;99736.06;;;9.37;88.68
52032;BME280;38044;45.148;39.604;2023-12-22T03:11:48;99737.88;;;9.28;89.87
52032;BME280;38044;45.148;39.604;2023-12-22T03:14:14;99743.94;;;9.19;90.76
52032;BME280;38044;45.148;39.604;2023-12-22T03:16:40;99735.13;;;9.05;91.86
52032;BME280;38044;45.148;39.604;2023-12-22T03:19:09;99726.91;;;9.01;92.72
52032;BME280;38044;45.148;39.604;2023-12-22T03:21:35;99724.72;;;8.90;93.12
52032;BME280;38044;45.148;39.604;2023-12-22T03:24:01;99758.25;;;9.01;93.88
52032;BME280;38044;45.148;39.604;2023-12-22T03:26:27;99750.53;;;8.99;95.18
52032;BME280;38044;45.148;39.604;2023-12-22T03:28:53;99757.28;;;8.97;95.52
52032;BME280;38044;45.148;39.604;2023-12-22T03:31:20;99737.03;;;8.91;95.89
52032;BME280;38044;45.148;39.604;2023-12-22T03:33:45;99754.41;;;9.07;96.10
52032;BME280;38044;45.148;39.604;2023-12-22T03:36:11;99755.97;;;9.08;95.88
52032;BME280;38044;45.148;39.604;2023-12-22T03:38:37;99754.28;;;9.12;96.11
52032;BME280;38044;45.148;39.604;2023-12-22T03:41:03;99743.38;;;9.09;95.82
52032;BME280;38044;45.148;39.604;2023-12-22T03:43:29;99768.19;;;9.14;96.04
52032;BME280;38044;45.148;39.604;2023-12-22T03:45:57;99757.09;;;9.07;96.61
52032;BME280;38044;45.148;39.604;2023-12-22T03:48:22;99774.16;;;9.11;96.49
52032;BME280;38044;45.148;39.604;2023-12-22T03:50:48;99768.19;;;9.14;96.83
52032;BME280;38044;45.148;39.604;2023-12-22T03:53:14;99756.06;;;9.17;96.52
52032;BME280;38044;45.148;39.604;2023-12-22T03:55:40;99759.53;;;9.17;96.94
52032;BME280;38044;45.148;39.604;2023-12-22T03:58:06;99759.03;;;9.15;97.18
52032;BME280;38044;45.148;39.604;2023-12-22T04:00:33;99748.91;;;9.12;97.48
52032;BME280;38044;45.148;39.604;2023-12-22T04:03:00;99745.44;;;9.12;97.41
52032;BME280;38044;45.148;39.604;2023-12-22T04:05:26;99741.00;;;9.07;97.92
52032;BME280;38044;45.148;39.604;2023-12-22T04:07:52;99727.69;;;9.02;98.19
52032;BME280;38044;45.148;39.604;2023-12-22T04:10:18;99733.44;;;9.09;97.83
52032;BME280;38044;45.148;39.604;2023-12-22T04:12:44;99720.94;;;9.05;98.22
52032;BME280;38044;45.148;39.604;2023-12-22T04:15:10;99731.75;;;9.13;98.52
52032;BME280;38044;45.148;39.604;2023-12-22T04:17:36;99739.19;;;9.16;98.49
52032;BME280;38044;45.148;39.604;2023-12-22T04:20:02;99731.16;;;9.16;98.17
52032;BME280;38044;45.148;39.604;2023-12-22T04:22:28;99736.78;;;9.15;97.85
52032;BME280;38044;45.148;39.604;2023-12-22T04:24:54;99736.59;;;9.11;98.04
52032;BME280;38044;45.148;39.604;2023-12-22T04:27:19;99735.50;;;9.12;97.88
52032;BME280;38044;45.148;39.604;2023-12-22T04:29:45;99722.41;;;9.11;98.07
52032;BME280;38044;45.148;39.604;2023-12-22T04:32:11;99693.31;;;9.04;98.28
52032;BME280;38044;45.148;39.604;2023-12-22T04:34:37;99715.16;;;9.11;98.61
52032;BME280;38044;45.148;39.604;2023-12-22T04:37:03;99716.88;;;9.07;98.14
52032;BME280;38044;45.148;39.604;2023-12-22T04:39:30;99724.31;;;9.10;98.02
52032;BME280;38044;45.148;39.604;2023-12-22T04:41:56;99727.09;;;9.05;97.92
52032;BME280;38044;45.148;39.604;2023-12-22T04:44:22;99710.59;;;8.98;97.45
52032;BME280;38044;45.148;39.604;2023-12-22T04:46:48;99702.56;;;8.98;97.63
52032;BME280;38044;45.148;39.604;2023-12-22T04:49:14;99685.69;;;8.97;97.63
52032;BME280;38044;45.148;39.604;2023-12-22T04:51:40;99680.16;;;8.94;97.53
52032;BME280;38044;45.148;39.604;2023-12-22T04:54:06;99679.66;;;8.92;97.35
52032;BME280;38044;45.148;39.604;2023-12-22T04:56:32;99671.31;;;8.93;97.48
52032;BME280;38044;45.148;39.604;2023-12-22T04:58:58;99662.69;;;8.83;97.01
52032;BME280;38044;45.148;39.604;2023-12-22T05:01:23;99675.91;;;8.93;97.15
52032;BME280;38044;45.148;39.604;2023-12-22T05:03:49;99679.66;;;8.92;97.21
52032;BME280;38044;45.148;39.604;2023-12-22T05:06:15;99662.69;;;8.83;97.51
52032;BME280;38044;45.148;39.604;2023-12-22T05:08:41;99675.91;;;8.93;97.34
52032;BME280;38044;45.148;39.604;2023-12-22T05:11:07;99675.91;;;8.93;97.44
52032;BME280;38044;45.148;39.604;2023-12-22T05:13:33;99670.31;;;8.89;97.25
52032;BME280;38044;45.148;39.604;2023-12-22T05:15:59;99666.34;;;8.87;97.04
52032;BME280;38044;45.148;39.604;2023-12-22T05:18:25;99651.47;;;8.80;97.17
52032;BME280;38044;45.148;39.604;2023-12-22T05:20:51;99666.16;;;8.83;97.25
52032;BME280;38044;45.148;39.604;2023-12-22T05:23:19;99651.41;;;8.72;97.30
52032;BME280;38044;45.148;39.604;2023-12-22T05:25:45;99669.94;;;8.82;97.36
52032;BME280;38044;45.148;39.604;2023-12-22T05:28:11;99672.81;;;8.86;97.52
52032;BME280;38044;45.148;39.604;2023-12-22T05:30:36;99669.75;;;8.78;97.65
52032;BME280;38044;45.148;39.604;2023-12-22T05:33:02;99663.59;;;8.78;97.45
52032;BME280;38044;45.148;39.604;2023-12-22T05:35:28;99678.84;;;8.91;97.48
52032;BME280;38044;45.148;39.604;2023-12-22T05:37:54;99677.47;;;8.94;97.38
52032;BME280;38044;45.148;39.604;2023-12-22T05:40:20;99670.91;;;9.00;97.04
52032;BME280;38044;45.148;39.604;2023-12-22T05:42:46;99674.88;;;9.02;96.80
52032;BME280;38044;45.148;39.604;2023-12-22T05:45:13;99660.56;;;9.07;96.52
52032;BME280;38044;45.148;39.604;2023-12-22T05:47:39;99663.72;;;9.09;96.66
52032;BME280;38044;45.148;39.604;2023-12-22T05:50:06;99638.44;;;9.01;96.14
52032;BME280;38044;45.148;39.604;2023-12-22T05:52:32;99659.81;;;9.15;96.70
52032;BME280;38044;45.148;39.604;2023-12-22T05:54:58;99654.16;;;9.17;96.56
52032;BME280;38044;45.148;39.604;2023-12-22T05:57:27;99634.50;;;9.21;96.51
52032;BME280;38044;45.148;39.604;2023-12-22T05:59:53;99617.25;;;9.14;96.84
52032;BME280;38044;45.148;39.604;2023-12-22T06:02:19;99625.78;;;9.16;96.86
52032;BME280;38044;45.148;39.604;2023-12-22T06:04:45;99631.56;;;9.32;96.45
52032;BME280;38044;45.148;39.604;2023-12-22T06:07:11;99637.78;;;9.41;96.29
52032;BME280;38044;45.148;39.604;2023-12-22T06:09:37;99631.34;;;9.42;96.11
52032;BME280;38044;45.148;39.604;2023-12-22T06:12:03;99610.94;;;9.41;95.64
52032;BME280;38044;45.148;39.604;2023-12-22T06:14:29;99620.94;;;9.49;95.81
52032;BME280;38044;45.148;39.604;2023-12-22T06:16:55;99613.41;;;9.51;95.29
52032;BME280;38044;45.148;39.604;2023-12-22T06:19:23;99615.22;;;9.64;95.39
52032;BME280;38044;45.148;39.604;2023-12-22T06:21:50;99614.59;;;9.67;95.00
52032;BME280;38044;45.148;39.604;2023-12-22T06:24:16;99607.34;;;9.68;95.00
52032;BME280;38044;45.148;39.604;2023-12-22T06:26:42;99612.38;;;9.69;94.69
52032;BME280;38044;45.148;39.604;2023-12-22T06:29:09;99600.88;;;9.69;94.20
52032;BME280;38044;45.148;39.604;2023-12-22T06:31:35;99596.28;;;9.69;94.35
52032;BME280;38044;45.148;39.604;2023-12-22T06:34:01;99596.47;;;9.73;94.20
52032;BME280;38044;45.148;39.604;2023-12-22T06:36:28;99591.28;;;9.77;93.70
52032;BME280;38044;45.148;39.604;2023-12-22T06:38:56;99576.47;;;9.79;93.64
52032;BME280;38044;45.148;39.604;2023-12-22T06:41:30;99572.06;;;9.92;93.28
52032;BME280;38044;45.148;39.604;2023-12-22T06:43:57;99559.91;;;9.86;92.69
52032;BME280;38044;45.148;39.604;2023-12-22T06:46:25;99565.00;;;9.96;92.60
52032;BME280;38044;45.148;39.604;2023-12-22T06:48:52;99528.19;;;9.88;92.38
52032;BME280;38044;45.148;39.604;2023-12-22T06:51:20;99532.78;;;9.96;92.03
52032;BME280;38044;45.148;39.604;2023-12-22T06:53:50;99548.25;;;9.99;92.16
52032;BME280;38044;45.148;39.604;2023-12-22T06:56:20;99543.34;;;10.01;91.91
52032;BME280;38044;45.148;39.604;2023-12-22T06:58:47;99555.56;;;10.07;91.35
52032;BME280;38044;45.148;39.604;2023-12-22T07:01:27;99569.94;;;10.11;92.02
52032;BME280;38044;45.148;39.604;2023-12-22T07:03:54;99539.38;;;9.90;91.14
52032;BME280;38044;45.148;39.604;2023-12-22T07:06:21;99559.63;;;9.96;91.01
52032;BME280;38044;45.148;39.604;2023-12-22T07:11:25;99566.94;;;10.13;90.04
52032;BME280;38044;45.148;39.604;2023-12-22T07:13:50;99551.22;;;10.29;89.08
52032;BME280;38044;45.148;39.604;2023-12-22T07:16:16;99566.72;;;10.49;88.67
52032;BME280;38044;45.148;39.604;2023-12-22T07:18:42;99564.53;;;10.95;87.33
52032;BME280;38044;45.148;39.604;2023-12-22T07:21:08;99561.13;;;11.41;85.52
52032;BME280;38044;45.148;39.604;2023-12-22T07:23:41;99574.06;;;12.12;82.86
52032;BME280;38044;45.148;39.604;2023-12-22T07:26:10;99576.38;;;12.73;79.99
52032;BME280;38044;45.148;39.604;2023-12-22T07:28:36;99562.66;;;13.20;76.55
52032;BME280;38044;45.148;39.604;2023-12-22T07:31:02;99568.81;;;13.42;74.95
52032;BME280;38044;45.148;39.604;2023-12-22T07:33:27;99561.84;;;13.41;74.44
52032;BME280;38044;45.148;39.604;2023-12-22T07:35:54;99568.81;;;13.42;72.81
52032;BME280;38044;45.148;39.604;2023-12-22T07:38:20;99562.00;;;13.23;73.78
52032;BME280;38044;45.148;39.604;2023-12-22T07:40:46;99533.75;;;12.88;75.04
52032;BME280;38044;45.148;39.604;2023-12-22T07:43:12;99559.50;;;12.85;74.98
52032;BME280;38044;45.148;39.604;2023-12-22T07:45:39;99549.00;;;12.83;75.87
52032;BME280;38044;45.148;39.604;2023-12-22T07:48:05;99547.63;;;12.77;74.73
52032;BME280;38044;45.148;39.604;2023-12-22T07:50:32;99534.16;;;12.77;75.11
52032;BME280;38044;45.148;39.604;2023-12-22T07:52:58;99531.94;;;12.79;75.01
52032;BME280;38044;45.148;39.604;2023-12-22T07:55:24;99520.47;;;12.82;75.02
52032;BME280;38044;45.148;39.604;2023-12-22T07:57:51;99505.19;;;12.87;73.41
52032;BME280;38044;45.148;39.604;2023-12-22T08:00:17;99518.94;;;12.94;74.19
52032;BME280;38044;45.148;39.604;2023-12-22T08:02:43;99508.88;;;13.03;73.47
52032;BME280;38044;45.148;39.604;2023-12-22T08:05:09;99485.75;;;12.81;72.76
52032;BME280;38044;45.148;39.604;2023-12-22T08:07:36;99499.75;;;12.74;74.18
52032;BME280;38044;45.148;39.604;2023-12-22T08:10:03;99490.19;;;12.98;73.00
52032;BME280;38044;45.148;39.604;2023-12-22T08:12:29;99481.97;;;12.94;73.19
52032;BME280;38044;45.148;39.604;2023-12-22T08:14:57;99477.31;;;12.82;74.01
52032;BME280;38044;45.148;39.604;2023-12-22T08:17:23;99467.75;;;12.52;74.15
52032;BME280;38044;45.148;39.604;2023-12-22T08:19:49;99478.81;;;12.38;73.99
52032;BME280;38044;45.148;39.604;2023-12-22T08:22:15;99477.03;;;12.21;75.13
52032;BME280;38044;45.148;39.604;2023-12-22T08:24:41;99476.28;;;12.12;76.29
52032;BME280;38044;45.148;39.604;2023-12-22T08:27:08;99470.25;;;12.15;75.56
52032;BME280;38044;45.148;39.604;2023-12-22T08:29:34;99468.03;;;12.17;76.01
52032;BME280;38044;45.148;39.604;2023-12-22T08:32:00;99446.31;;;12.89;74.20
52032;BME280;38044;45.148;39.604;2023-12-22T08:34:27;99447.34;;;13.79;71.01
52032;BME280;38044;45.148;39.604;2023-12-22T08:36:53;99439.34;;;13.94;69.07
52032;BME280;38044;45.148;39.604;2023-12-22T08:39:19;99443.97;;;13.94;67.89
52032;BME280;38044;45.148;39.604;2023-12-22T08:41:45;99431.47;;;13.65;68.41
52032;BME280;38044;45.148;39.604;2023-12-22T08:44:12;99443.63;;;13.34;69.51
52032;BME280;38044;45.148;39.604;2023-12-22T08:46:40;99432.66;;;13.06;70.46
52032;BME280;38044;45.148;39.604;2023-12-22T08:49:06;99416.16;;;12.74;70.77
52032;BME280;38044;45.148;39.604;2023-12-22T08:51:33;99415.13;;;12.67;71.66
52032;BME280;38044;45.148;39.604;2023-12-22T08:54:02;99421.75;;;12.57;70.54
52032;BME280;38044;45.148;39.604;2023-12-22T08:56:30;99411.16;;;12.52;70.42
52032;BME280;38044;45.148;39.604;2023-12-22T08:58:56;99414.53;;;12.61;69.58
52032;BME280;38044;45.148;39.604;2023-12-22T09:01:24;99395.50;;;12.78;68.08
52032;BME280;38044;45.148;39.604;2023-12-22T09:03:50;99402.09;;;13.14;67.68
52032;BME280;38044;45.148;39.604;2023-12-22T09:06:21;99407.28;;;13.81;66.78
52032;BME280;38044;45.148;39.604;2023-12-22T09:08:47;99409.78;;;14.42;64.23
52032;BME280;38044;45.148;39.604;2023-12-22T09:11:16;99404.19;;;14.91;62.78
52032;BME280;38044;45.148;39.604;2023-12-22T09:13:42;99393.53;;;14.98;61.10
52032;BME280;38044;45.148;39.604;2023-12-22T09:16:09;99398.03;;;14.62;61.25
52032;BME280;38044;45.148;39.604;2023-12-22T09:18:35;99388.38;;;14.49;62.88
52032;BME280;38044;45.148;39.604;2023-12-22T09:21:02;99389.09;;;15.06;61.81
52032;BME280;38044;45.148;39.604;2023-12-22T09:23:29;99396.03;;;15.70;61.66
52032;BME280;38044;45.148;39.604;2023-12-22T09:25:55;99387.47;;;16.04;60.17
52032;BME280;38044;45.148;39.604;2023-12-22T09:28:21;99362.69;;;16.05;59.55
52032;BME280;38044;45.148;39.604;2023-12-22T09:30:47;99377.19;;;16.32;57.35
52032;BME280;38044;45.148;39.604;2023-12-22T09:33:13;99367.78;;;16.26;57.85
52032;BME280;38044;45.148;39.604;2023-12-22T09:35:38;99374.06;;;15.91;58.12
52032;BME280;38044;45.148;39.604;2023-12-22T09:38:08;99342.69;;;15.39;58.07
52032;BME280;38044;45.148;39.604;2023-12-22T09:40:35;99358.09;;;15.03;59.91
52032;BME280;38044;45.148;39.604;2023-12-22T09:43:02;99330.25;;;14.71;60.34
52032;BME280;38044;45.148;39.604;2023-12-22T09:45:32;99344.66;;;14.75;59.99
52032;BME280;38044;45.148;39.604;2023-12-22T09:48:00;99351.78;;;14.68;60.53
52032;BME280;38044;45.148;39.604;2023-12-22T09:50:27;99378.63;;;14.89;60.21
52032;BME280;38044;45.148;39.604;2023-12-22T09:52:54;99368.22;;;15.06;60.33
52032;BME280;38044;45.148;39.604;2023-12-22T09:55:24;99368.84;;;15.31;59.72
52032;BME280;38044;45.148;39.604;2023-12-22T09:57:51;99369.28;;;15.18;60.08
52032;BME280;38044;45.148;39.604;2023-12-22T10:00:18;99369.63;;;15.32;60.89
52032;BME280;38044;45.148;39.604;2023-12-22T10:02:45;99376.78;;;15.40;60.04
52032;BME280;38044;45.148;39.604;2023-12-22T10:05:11;99370.25;;;15.25;60.11
52032;BME280;38044;45.148;39.604;2023-12-22T10:07:41;99365.25;;;15.12;60.50
52032;BME280;38044;45.148;39.604;2023-12-22T10:10:10;99362.63;;;14.83;61.20
52032;BME280;38044;45.148;39.604;2023-12-22T10:12:38;99363.13;;;14.73;61.79
52032;BME280;38044;45.148;39.604;2023-12-22T10:15:05;99360.88;;;14.59;62.88
52032;BME280;38044;45.148;39.604;2023-12-22T10:17:33;99359.09;;;14.51;62.14
52032;BME280;38044;45.148;39.604;2023-12-22T10:20:00;99362.13;;;14.50;62.69
52032;BME280;38044;45.148;39.604;2023-12-22T10:22:26;99350.31;;;14.42;63.28
52032;BME280;38044;45.148;39.604;2023-12-22T10:24:52;99367.06;;;14.60;62.99
52032;BME280;38044;45.148;39.604;2023-12-22T10:27:19;99365.59;;;14.62;63.41
52032;BME280;38044;45.148;39.604;2023-12-22T10:29:49;99360.34;;;14.70;62.64
52032;BME280;38044;45.148;39.604;2023-12-22T10:32:16;99347.34;;;14.59;62.77
52032;BME280;38044;45.148;39.604;2023-12-22T10:34:42;99350.22;;;14.67;62.72
52032;BME280;38044;45.148;39.604;2023-12-22T10:37:09;99347.78;;;14.61;62.79
52032;BME280;38044;45.148;39.604;2023-12-22T10:39:36;99345.44;;;14.48;62.91
52032;BME280;38044;45.148;39.604;2023-12-22T10:42:03;99325.44;;;14.20;63.37
52032;BME280;38044;45.148;39.604;2023-12-22T10:44:29;99342.09;;;14.23;64.55
52032;BME280;38044;45.148;39.604;2023-12-22T10:46:56;99336.16;;;14.17;65.94
52032;BME280;38044;45.148;39.604;2023-12-22T10:49:24;99331.53;;;14.17;64.32
52032;BME280;38044;45.148;39.604;2023-12-22T10:51:50;99324.34;;;14.09;64.77
52032;BME280;38044;45.148;39.604;2023-12-22T10:54:18;99317.63;;;14.03;65.57
52032;BME280;38044;45.148;39.604;2023-12-22T10:56:44;99322.03;;;13.95;65.88
52032;BME280;38044;45.148;39.604;2023-12-22T10:59:10;99326.56;;;13.91;66.04
52032;BME280;38044;45.148;39.604;2023-12-22T11:01:37;99314.75;;;13.84;66.50
52032;BME280;38044;45.148;39.604;2023-12-22T11:04:08;99295.13;;;13.71;66.60
52032;BME280;38044;45.148;39.604;2023-12-22T11:06:35;99315.34;;;13.77;67.23
52032;BME280;38044;45.148;39.604;2023-12-22T11:09:08;99309.59;;;13.79;67.43
52032;BME280;38044;45.148;39.604;2023-12-22T11:11:36;99312.19;;;13.75;66.92
52032;BME280;38044;45.148;39.604;2023-12-22T11:14:03;99306.34;;;13.73;67.18
52032;BME280;38044;45.148;39.604;2023-12-22T11:16:30;99302.38;;;13.83;67.12
52032;BME280;38044;45.148;39.604;2023-12-22T11:18:57;99297.63;;;13.92;67.01
52032;BME280;38044;45.148;39.604;2023-12-22T11:21:25;99306.81;;;14.03;66.66
52032;BME280;38044;45.148;39.604;2023-12-22T11:23:52;99314.00;;;14.11;66.40
52032;BME280;38044;45.148;39.604;2023-12-22T11:26:20;99304.13;;;14.19;65.54
52032;BME280;38044;45.148;39.604;2023-12-22T11:28:47;99301.97;;;14.25;65.79
52032;BME280;38044;45.148;39.604;2023-12-22T11:31:14;99310.19;;;14.28;65.48
52032;BME280;38044;45.148;39.604;2023-12-22T11:33:45;99304.19;;;14.35;65.51
52032;BME280;38044;45.148;39.604;2023-12-22T11:36:15;99300.78;;;14.38;65.35
52032;BME280;38044;45.148;39.604;2023-12-22T11:38:42;99301.03;;;14.33;64.42
52032;BME280;38044;45.148;39.604;2023-12-22T11:41:17;99281.94;;;14.26;65.71
52032;BME280;38044;45.148;39.604;2023-12-22T11:43:44;99296.69;;;14.28;65.50
52032;BME280;38044;45.148;39.604;2023-12-22T11:46:10;99287.16;;;14.18;65.46
52032;BME280;38044;45.148;39.604;2023-12-22T11:48:37;99291.97;;;14.25;65.85
52032;BME280;38044;45.148;39.604;2023-12-22T11:51:16;99282.19;;;14.20;65.70
52032;BME280;38044;45.148;39.604;2023-12-22T11:53:42;99293.06;;;14.08;65.76
52032;BME280;38044;45.148;39.604;2023-12-22T11:56:09;99284.22;;;13.95;66.12
52032;BME280;38044;45.148;39.604;2023-12-22T12:01:04;99291.13;;;13.81;67.31
52032;BME280;38044;45.148;39.604;2023-12-22T12:03:31;99285.09;;;13.71;67.17
52032;BME280;38044;45.148;39.604;2023-12-22T12:08:54;99286.94;;;13.55;67.36
52032;BME280;38044;45.148;39.604;2023-12-22T12:11:20;99278.88;;;13.43;67.96
52032;BME280;38044;45.148;39.604;2023-12-22T12:13:47;99281.78;;;13.38;67.71
52032;BME280;38044;45.148;39.604;2023-12-22T12:16:15;99278.44;;;13.28;67.56
52032;BME280;38044;45.148;39.604;2023-12-22T12:18:44;99275.75;;;13.16;68.17
52032;BME280;38044;45.148;39.604;2023-12-22T12:21:11;99268.41;;;13.04;68.79
52032;BME280;38044;45.148;39.604;2023-12-22T12:23:38;99266.66;;;12.96;69.27
52032;BME280;38044;45.148;39.604;2023-12-22T12:26:07;99253.03;;;12.80;68.66
52032;BME280;38044;45.148;39.604;2023-12-22T12:28:35;99272.25;;;12.91;68.66
52032;BME280;38044;45.148;39.604;2023-12-22T12:31:06;99272.38;;;12.95;68.68
52032;BME280;38044;45.148;39.604;2023-12-22T12:33:32;99274.97;;;12.91;68.14
52032;BME280;38044;45.148;39.604;2023-12-22T12:36:01;99264.94;;;12.92;68.14
52032;BME280;38044;45.148;39.604;2023-12-22T12:38:53;99267.63;;;13.04;67.04
52032;BME280;38044;45.148;39.604;2023-12-22T12:41:32;99266.84;;;13.03;65.62
52032;BME280;38044;45.148;39.604;2023-12-22T12:44:03;99264.03;;;13.12;64.69
52032;BME280;38044;45.148;39.604;2023-12-22T12:46:37;99252.38;;;13.08;63.64
52032;BME280;38044;45.148;39.604;2023-12-22T12:49:08;99256.94;;;13.20;63.03
52032;BME280;38044;45.148;39.604;2023-12-22T12:51:38;99262.13;;;13.25;62.24
52032;BME280;38044;45.148;39.604;2023-12-22T12:54:05;99255.91;;;13.24;62.22
52032;BME280;38044;45.148;39.604;2023-12-22T12:56:44;99244.91;;;13.29;61.80
52032;BME280;38044;45.148;39.604;2023-12-22T12:59:12;99263.81;;;13.29;61.92